Time;durP1;ratioP1;P1;durP2;ratioP2;P2;SDS_P1;SDS_P2;PMS_P1;PMS_P2;Temp;Humidity;BMP_temperature;BMP_pressure;BME280_temperature;BME280_humidity;BME280_pressure;Samples;Min_cycle;Max_cycle;Signal;HPM_P1;HPM_P2
2022/03/11 00:00:45;;;;;;;13.63;5.50;;;4.80;87.60;;;;;;4882650;29;20045;-86
2022/03/11 00:03:11;;;;;;;7.87;4.83;;;4.80;88.40;;;;;;4895211;29;20041;-86
2022/03/11 00:05:38;;;;;;;8.07;4.57;;;5.00;89.10;;;;;;4854904;29;20080;-85
2022/03/11 00:08:04;;;;;;;9.38;5.68;;;4.70;89.60;;;;;;4875808;29;20036;-86
2022/03/11 00:10:30;;;;;;;7.77;5.00;;;4.60;89.70;;;;;;4863637;29;20377;-85
2022/03/11 00:12:56;;;;;;;9.32;5.40;;;4.60;89.80;;;;;;4864053;29;20044;-86
2022/03/11 00:15:22;;;;;;;10.02;5.13;;;4.60;90.20;;;;;;4870160;29;20052;-86
2022/03/11 00:17:48;;;;;;;9.80;4.75;;;4.50;90.30;;;;;;4863801;29;20064;-86
2022/03/11 00:20:19;;;;;;;12.85;6.18;;;4.60;90.40;;;;;;4860187;29;20045;-84
2022/03/11 00:22:46;;;;;;;11.43;6.05;;;4.40;90.30;;;;;;4878996;29;20566;-86
2022/03/11 00:25:12;;;;;;;6.10;4.80;;;4.40;90.60;;;;;;4888312;29;20068;-84
2022/03/11 00:27:38;;;;;;;6.68;4.97;;;4.40;91.00;;;;;;4860107;29;20054;-86
2022/03/11 00:30:05;;;;;;;7.57;5.50;;;4.40;91.20;;;;;;4871807;29;20063;-84
2022/03/11 00:32:30;;;;;;;6.38;4.65;;;4.30;91.30;;;;;;4873496;29;20076;-84
2022/03/11 00:34:56;;;;;;;8.32;4.80;;;4.30;91.60;;;;;;4874657;29;20053;-86
2022/03/11 00:37:22;;;;;;;7.85;5.80;;;4.20;92.00;;;;;;4861703;29;20097;-85
2022/03/11 00:39:48;;;;;;;8.50;4.75;;;4.20;92.00;;;;;;4881160;29;20133;-86
2022/03/11 00:42:14;;;;;;;10.90;4.75;;;4.70;92.20;;;;;;4866946;29;20245;-86
2022/03/11 00:44:40;;;;;;;7.38;4.63;;;4.30;92.30;;;;;;4862594;29;20365;-86
2022/03/11 00:47:07;;;;;;;8.82;4.60;;;4.10;92.30;;;;;;4886212;29;20053;-86
2022/03/11 00:49:33;;;;;;;7.97;4.30;;;4.10;92.60;;;;;;4869425;29;20124;-85
2022/03/11 00:51:59;;;;;;;9.85;4.43;;;4.20;92.90;;;;;;4879871;29;20128;-86
2022/03/11 00:54:25;;;;;;;8.18;4.90;;;4.10;93.10;;;;;;4868344;29;20181;-86
2022/03/11 00:56:51;;;;;;;7.60;4.35;;;4.00;93.00;;;;;;4866491;29;20041;-86
2022/03/11 00:59:17;;;;;;;9.38;4.97;;;4.00;93.20;;;;;;4880188;29;20120;-86
2022/03/11 01:01:42;;;;;;;8.25;4.80;;;4.00;93.50;;;;;;4892179;29;20488;-85
2022/03/11 01:04:08;;;;;;;6.68;4.18;;;4.20;93.60;;;;;;4862941;29;20045;-86
2022/03/11 01:06:35;;;;;;;6.15;4.55;;;4.00;94.10;;;;;;4864451;29;20095;-83
2022/03/11 01:09:01;;;;;;;10.65;5.30;;;4.00;94.30;;;;;;4866768;29;20125;-86
2022/03/11 01:11:26;;;;;;;7.53;4.18;;;4.00;95.00;;;;;;4880459;29;20140;-87
2022/03/11 01:13:52;;;;;;;7.75;5.10;;;3.90;94.90;;;;;;4882561;29;20515;-86
2022/03/11 01:16:18;;;;;;;10.23;4.90;;;4.00;95.00;;;;;;4879168;29;20073;-86
2022/03/11 01:18:43;;;;;;;8.55;4.07;;;3.90;95.30;;;;;;4878602;29;20071;-86
2022/03/11 01:21:10;;;;;;;9.07;4.55;;;3.90;96.30;;;;;;4851382;29;20132;-86
2022/03/11 01:23:36;;;;;;;5.35;3.63;;;3.90;96.50;;;;;;4878793;29;20049;-86
2022/03/11 01:26:02;;;;;;;6.78;4.38;;;4.20;96.70;;;;;;4894007;29;20053;-86
2022/03/11 01:28:27;;;;;;;6.68;4.13;;;3.90;97.00;;;;;;4861706;29;20038;-86
2022/03/11 01:30:53;;;;;;;6.20;4.40;;;3.80;97.40;;;;;;4882404;29;20119;-86
2022/03/11 01:33:19;;;;;;;7.22;4.70;;;3.80;97.90;;;;;;4835876;29;20048;-86
2022/03/11 01:35:46;;;;;;;5.10;3.95;;;3.90;98.40;;;;;;4885056;29;20049;-86
2022/03/11 01:38:12;;;;;;;8.48;4.05;;;3.80;98.50;;;;;;4866258;29;20447;-86
2022/03/11 01:40:38;;;;;;;6.75;4.40;;;3.80;99.50;;;;;;4878303;29;20457;-85
2022/03/11 01:43:04;;;;;;;6.25;4.47;;;3.90;99.60;;;;;;4871460;29;20081;-86
2022/03/11 01:45:29;;;;;;;6.03;4.43;;;3.90;99.90;;;;;;4860550;29;20096;-86
2022/03/11 01:47:55;;;;;;;10.85;5.05;;;3.90;99.90;;;;;;4871396;29;20049;-86
2022/03/11 01:50:21;;;;;;;9.77;4.55;;;3.90;99.90;;;;;;4879643;29;20056;-86
2022/03/11 01:52:46;;;;;;;4.75;4.28;;;3.80;99.90;;;;;;4887474;29;20077;-86
2022/03/11 01:55:14;;;;;;;6.82;4.10;;;4.90;99.90;;;;;;4863100;29;20053;-86
2022/03/11 01:57:40;;;;;;;12.50;4.72;;;3.80;99.90;;;;;;4878454;29;20041;-86
2022/03/11 02:00:07;;;;;;;10.50;5.88;;;4.60;99.90;;;;;;4880208;29;20117;-86
2022/03/11 02:02:33;;;;;;;7.00;4.90;;;3.80;99.90;;;;;;4884183;29;20087;-85
2022/03/11 02:04:59;;;;;;;8.50;5.22;;;3.80;99.90;;;;;;4872261;29;20497;-86
2022/03/11 02:07:26;;;;;;;8.57;5.55;;;3.70;99.90;;;;;;4861719;29;20131;-86
2022/03/11 02:09:53;;;;;;;9.38;4.63;;;4.30;99.90;;;;;;4871783;29;20131;-86
2022/03/11 02:12:34;;;;;;;7.60;4.93;;;3.70;99.90;;;;;;4867117;29;20512;-85
2022/03/11 02:15:08;;;;;;;13.02;6.18;;;3.60;99.90;;;;;;4877314;29;20048;-86
2022/03/11 02:17:33;;;;;;;13.20;6.07;;;3.60;99.90;;;;;;4884289;29;20604;-86
2022/03/11 02:20:00;;;;;;;6.07;4.65;;;3.60;99.90;;;;;;4885667;29;20123;-86
2022/03/11 02:22:26;;;;;;;14.77;5.93;;;3.60;99.90;;;;;;4885698;29;20048;-86
2022/03/11 02:24:53;;;;;;;7.97;5.97;;;3.60;99.90;;;;;;4880966;29;20059;-86
2022/03/11 02:27:19;;;;;;;8.18;5.53;;;3.70;99.90;;;;;;4891061;29;20048;-86
2022/03/11 02:29:45;;;;;;;8.18;5.05;;;3.50;99.90;;;;;;4861702;29;20056;-85
2022/03/11 02:32:11;;;;;;;7.78;5.88;;;3.50;99.90;;;;;;4872923;29;20392;-86
2022/03/11 02:34:38;;;;;;;11.80;5.78;;;3.50;99.90;;;;;;4853251;29;20053;-86
2022/03/11 02:37:05;;;;;;;9.60;6.63;;;3.80;99.90;;;;;;4881749;29;20044;-86
2022/03/11 02:39:30;;;;;;;9.50;5.88;;;3.50;99.90;;;;;;4874641;29;20080;-85
2022/03/11 02:41:57;;;;;;;10.60;5.97;;;3.50;99.90;;;;;;4878701;29;20501;-85
2022/03/11 02:44:24;;;;;;;10.30;6.50;;;3.70;99.90;;;;;;4881963;29;20112;-86
2022/03/11 02:46:50;;;;;;;14.02;7.13;;;3.40;99.90;;;;;;4891421;29;20056;-86
2022/03/11 02:49:16;;;;;;;12.95;6.55;;;3.40;99.90;;;;;;4881724;29;20041;-86
2022/03/11 02:51:41;;;;;;;12.02;6.75;;;3.40;99.90;;;;;;4877336;29;20045;-84
2022/03/11 02:54:07;;;;;;;11.20;6.00;;;3.40;99.90;;;;;;4877561;29;20640;-86
2022/03/11 02:56:33;;;;;;;12.32;6.78;;;3.30;99.90;;;;;;4886928;29;20049;-86
2022/03/11 02:58:58;;;;;;;16.80;7.35;;;3.50;99.90;;;;;;4875716;29;20488;-86
2022/03/11 03:01:24;;;;;;;10.48;7.18;;;3.30;99.90;;;;;;4883061;29;20056;-85
2022/03/11 03:03:50;;;;;;;11.85;7.43;;;3.30;99.90;;;;;;4898640;29;20492;-86
2022/03/11 03:06:15;;;;;;;12.07;5.95;;;3.30;99.90;;;;;;4885514;29;20041;-86
2022/03/11 03:08:41;;;;;;;12.70;7.63;;;3.20;99.90;;;;;;4881808;29;20106;-86
2022/03/11 03:11:07;;;;;;;13.15;7.20;;;3.20;99.90;;;;;;4854250;29;20041;-85
2022/03/11 03:13:32;;;;;;;14.73;7.25;;;3.20;99.90;;;;;;4885634;29;20073;-86
2022/03/11 03:15:58;;;;;;;14.15;7.13;;;3.20;99.90;;;;;;4859634;29;20075;-86
2022/03/11 03:18:24;;;;;;;12.73;7.80;;;3.10;99.90;;;;;;4869562;29;20057;-85
2022/03/11 03:20:50;;;;;;;13.15;6.90;;;3.10;99.90;;;;;;4866276;29;20072;-86
2022/03/11 03:23:16;;;;;;;13.63;7.72;;;3.10;99.90;;;;;;4882149;29;20093;-86
2022/03/11 03:25:45;;;;;;;14.02;8.18;;;3.10;99.90;;;;;;4859692;29;20053;-86
2022/03/11 03:28:12;;;;;;;15.00;7.88;;;3.00;99.90;;;;;;4877376;29;20044;-85
2022/03/11 03:30:37;;;;;;;11.10;7.95;;;3.00;99.90;;;;;;4855340;29;20047;-86
2022/03/11 03:33:03;;;;;;;12.98;7.22;;;2.90;99.90;;;;;;4890706;29;20500;-86
2022/03/11 03:35:29;;;;;;;13.98;7.07;;;4.00;99.90;;;;;;4850470;29;20056;-86
2022/03/11 03:37:54;;;;;;;12.32;7.65;;;3.20;99.90;;;;;;4873334;29;20053;-85
2022/03/11 03:40:20;;;;;;;10.68;7.03;;;2.90;99.90;;;;;;4876575;29;20056;-86
2022/03/11 03:42:47;;;;;;;11.40;7.30;;;3.30;99.90;;;;;;4878537;29;20140;-86
2022/03/11 03:45:13;;;;;;;16.77;10.73;;;3.20;99.90;;;;;;4894286;29;20057;-85
2022/03/11 03:47:38;;;;;;;16.20;8.73;;;2.90;99.90;;;;;;4886110;29;20058;-86
2022/03/11 03:50:05;;;;;;;17.98;8.45;;;2.90;99.90;;;;;;4878568;29;20488;-86
2022/03/11 03:52:30;;;;;;;22.13;9.37;;;2.80;99.90;;;;;;4881480;29;20532;-84
2022/03/11 03:54:56;;;;;;;15.63;8.10;;;2.90;99.90;;;;;;4881413;29;20088;-85
2022/03/11 03:57:22;;;;;;;14.20;7.55;;;2.80;99.90;;;;;;4862794;29;20064;-86
2022/03/11 03:59:48;;;;;;;15.05;8.25;;;2.80;99.90;;;;;;4879779;29;20049;-86
2022/03/11 04:02:13;;;;;;;11.93;8.18;;;3.10;99.90;;;;;;4880500;29;20299;-85
2022/03/11 04:04:39;;;;;;;14.82;7.15;;;2.80;99.90;;;;;;4898098;29;20044;-86
2022/03/11 04:07:05;;;;;;;15.80;8.82;;;2.80;99.90;;;;;;4892320;29;20050;-85
2022/03/11 04:09:30;;;;;;;13.82;8.32;;;2.70;99.90;;;;;;4866856;29;20049;-86
2022/03/11 04:11:56;;;;;;;17.52;9.35;;;3.10;99.90;;;;;;4881837;29;20036;-85
2022/03/11 04:14:22;;;;;;;17.08;8.45;;;3.10;99.90;;;;;;4898903;29;20104;-86
2022/03/11 04:16:48;;;;;;;12.32;7.57;;;2.70;99.90;;;;;;4871227;29;20047;-86
2022/03/11 04:19:14;;;;;;;15.88;8.10;;;2.90;99.90;;;;;;4862008;29;20041;-84
2022/03/11 04:21:40;;;;;;;15.93;9.48;;;2.50;99.90;;;;;;4862986;29;20084;-86
2022/03/11 04:24:12;;;;;;;12.98;8.70;;;2.50;99.90;;;;;;4880632;29;20139;-85
2022/03/11 04:26:40;;;;;;;13.85;8.55;;;2.50;99.90;;;;;;4853881;29;20120;-85
2022/03/11 04:29:06;;;;;;;15.23;8.10;;;2.50;99.90;;;;;;4884459;29;20538;-86
2022/03/11 04:31:31;;;;;;;13.90;8.45;;;3.50;99.90;;;;;;4893644;29;20052;-85
2022/03/11 04:33:57;;;;;;;15.30;9.32;;;2.80;99.90;;;;;;4874136;29;20048;-85
2022/03/11 04:36:23;;;;;;;12.98;8.10;;;2.40;99.90;;;;;;4869233;29;20049;-84
2022/03/11 04:38:49;;;;;;;13.43;8.90;;;3.00;99.90;;;;;;4881345;29;20052;-86
2022/03/11 04:41:14;;;;;;;14.30;8.30;;;2.40;99.90;;;;;;4854993;29;20045;-85
2022/03/11 04:43:42;;;;;;;18.00;8.60;;;2.40;99.90;;;;;;4868310;29;20108;-86
2022/03/11 04:46:08;;;;;;;13.02;8.63;;;3.10;99.90;;;;;;4852763;29;20092;-86
2022/03/11 04:48:36;;;;;;;12.75;8.50;;;2.60;99.90;;;;;;4887488;29;20087;-85
2022/03/11 04:51:02;;;;;;;20.98;9.38;;;2.30;99.90;;;;;;4874566;29;20064;-84
2022/03/11 04:53:28;;;;;;;14.27;8.68;;;2.90;99.90;;;;;;4883359;29;20084;-86
2022/03/11 04:55:54;;;;;;;16.90;8.52;;;2.20;99.90;;;;;;4882248;29;20087;-86
2022/03/11 04:58:19;;;;;;;13.65;8.77;;;2.60;99.90;;;;;;4864412;29;20048;-86
2022/03/11 05:00:45;;;;;;;16.10;9.35;;;2.20;99.90;;;;;;4849699;29;20059;-85
2022/03/11 05:03:11;;;;;;;17.88;8.80;;;2.80;99.90;;;;;;4885474;29;20077;-86
2022/03/11 05:05:36;;;;;;;21.80;9.32;;;2.20;99.90;;;;;;4850377;29;20083;-86
2022/03/11 05:08:02;;;;;;;12.73;7.88;;;2.20;99.90;;;;;;4881326;29;20052;-85
2022/03/11 05:10:28;;;;;;;13.00;8.18;;;2.10;99.90;;;;;;4869488;29;20129;-86
2022/03/11 05:12:54;;;;;;;18.23;8.40;;;2.30;99.90;;;;;;4859622;29;20113;-86
2022/03/11 05:15:21;;;;;;;18.67;10.15;;;2.10;99.90;;;;;;4887654;29;20087;-86
2022/03/11 05:17:46;;;;;;;;;;;2.80;99.90;;;;;;4866597;29;20131;-86
2022/03/11 05:20:12;;;;;;;12.30;7.20;;;2.80;99.90;;;;;;4859290;29;20414;-85
2022/03/11 05:22:38;;;;;;;11.18;7.65;;;2.00;99.90;;;;;;4868537;29;20049;-86
2022/03/11 05:25:04;;;;;;;12.85;7.57;;;2.00;99.90;;;;;;4877696;29;20053;-86
2022/03/11 05:27:30;;;;;;;19.02;9.52;;;2.00;99.90;;;;;;4878819;29;20057;-86
2022/03/11 05:29:55;;;;;;;16.65;10.48;;;2.00;99.90;;;;;;4880947;29;20052;-86
2022/03/11 05:32:21;;;;;;;22.10;10.10;;;2.00;99.90;;;;;;4859871;29;20069;-86
2022/03/11 05:34:48;;;;;;;12.65;7.93;;;2.10;99.90;;;;;;4878446;29;20089;-86
2022/03/11 05:37:14;;;;;;;16.65;8.68;;;1.90;99.90;;;;;;4862765;29;20400;-85
2022/03/11 05:39:40;;;;;;;13.90;7.72;;;1.90;99.90;;;;;;4867673;29;20072;-86
2022/03/11 05:42:07;;;;;;;12.90;7.13;;;1.90;99.90;;;;;;4860609;29;20493;-86
2022/03/11 05:44:33;;;;;;;16.50;8.30;;;1.90;99.90;;;;;;4862171;29;20441;-86
2022/03/11 05:46:58;;;;;;;19.80;9.88;;;2.70;99.90;;;;;;4876304;29;20148;-86
2022/03/11 05:49:24;;;;;;;16.58;9.45;;;1.90;99.90;;;;;;4875327;29;20132;-86
2022/03/11 05:51:51;;;;;;;18.27;8.80;;;1.90;99.90;;;;;;4885204;29;20037;-86
2022/03/11 05:54:18;;;;;;;16.40;8.82;;;1.80;99.90;;;;;;4864629;29;20461;-85
2022/03/11 05:56:43;;;;;;;10.20;7.53;;;1.80;99.90;;;;;;4867773;29;20457;-85
2022/03/11 05:59:09;;;;;;;14.07;8.15;;;1.80;99.90;;;;;;4879287;29;20089;-85
2022/03/11 06:01:35;;;;;;;12.63;10.05;;;1.80;99.90;;;;;;4862257;29;20040;-85
2022/03/11 06:04:03;;;;;;;17.83;8.20;;;1.90;99.90;;;;;;4879198;29;20132;-86
2022/03/11 06:06:32;;;;;;;18.58;9.20;;;1.80;99.90;;;;;;4860493;29;20056;-85
2022/03/11 06:08:59;;;;;;;15.07;9.32;;;1.80;99.90;;;;;;4865206;29;20048;-85
2022/03/11 06:11:27;;;;;;;16.83;8.45;;;2.90;99.90;;;;;;4858997;29;20049;-86
2022/03/11 06:13:53;;;;;;;13.65;8.48;;;1.80;99.90;;;;;;4862352;29;20400;-86
2022/03/11 06:16:18;;;;;;;15.43;7.82;;;1.80;99.90;;;;;;4875324;29;20048;-86
2022/03/11 06:18:44;;;;;;;19.70;9.52;;;1.80;99.90;;;;;;4847192;29;20144;-87
2022/03/11 06:21:11;;;;;;;14.98;8.00;;;1.80;99.90;;;;;;4869153;29;20148;-85
2022/03/11 06:23:37;;;;;;;;;;;1.80;99.90;;;;;;4872318;29;20048;-86
2022/03/11 06:26:04;;;;;;;20.25;8.32;;;1.80;99.90;;;;;;4873748;29;19931;-88
2022/03/11 06:28:30;;;;;;;17.73;8.30;;;2.00;99.90;;;;;;4878253;29;20514;-91
2022/03/11 06:30:56;;;;;;;20.95;8.32;;;1.80;99.90;;;;;;4891954;29;20060;-90
2022/03/11 06:33:22;;;;;;;14.82;6.72;;;1.90;99.90;;;;;;4885069;29;20083;-86
2022/03/11 06:35:49;;;;;;;16.85;8.27;;;1.90;99.90;;;;;;4879019;29;20109;-88
2022/03/11 06:38:15;;;;;;;16.77;9.20;;;2.00;99.90;;;;;;4877676;29;20053;-90
2022/03/11 06:40:41;;;;;;;14.73;8.77;;;2.00;99.90;;;;;;4876493;29;20053;-86
2022/03/11 06:43:07;;;;;;;12.65;7.25;;;2.30;99.90;;;;;;4884670;29;20052;-83
2022/03/11 06:45:33;;;;;;;14.85;8.32;;;2.10;99.90;;;;;;4877956;29;20060;-85
2022/03/11 06:47:58;;;;;;;15.07;9.50;;;2.10;99.90;;;;;;4878822;29;20046;-85
2022/03/11 06:50:25;;;;;;;15.45;8.25;;;2.10;99.90;;;;;;4864795;29;20496;-85
2022/03/11 06:52:51;;;;;;;14.07;8.15;;;2.20;99.90;;;;;;4875126;29;20492;-86
2022/03/11 06:55:17;;;;;;;10.60;7.17;;;2.20;99.90;;;;;;4876554;29;20049;-86
2022/03/11 06:57:44;;;;;;;11.75;7.60;;;2.20;99.90;;;;;;4873857;29;20051;-87
2022/03/11 07:00:11;;;;;;;15.25;8.50;;;2.30;99.90;;;;;;4950177;24;20088;-89
2022/03/11 07:02:37;;;;;;;16.48;7.80;;;2.30;99.90;;;;;;4877423;29;20535;-88
2022/03/11 07:05:07;;;;;;;12.60;7.18;;;2.40;99.90;;;;;;4884253;29;20049;-87
2022/03/11 07:07:33;;;;;;;17.92;8.60;;;2.40;99.90;;;;;;4879020;29;20081;-87
2022/03/11 07:10:00;;;;;;;12.40;7.47;;;2.70;99.90;;;;;;4883930;29;20564;-87
2022/03/11 07:12:28;;;;;;;15.88;9.57;;;3.40;99.90;;;;;;4859713;29;20301;-88
2022/03/11 07:14:53;;;;;;;15.40;8.85;;;4.00;99.90;;;;;;4851135;29;20056;-86
2022/03/11 07:17:19;;;;;;;13.65;8.65;;;4.60;99.90;;;;;;4851947;29;20054;-85
2022/03/11 07:19:45;;;;;;;14.15;8.85;;;4.80;99.90;;;;;;4868453;29;20049;-86
2022/03/11 07:22:10;;;;;;;21.58;10.57;;;5.10;99.90;;;;;;4864187;29;20477;-88
2022/03/11 07:24:36;;;;;;;13.38;7.82;;;5.30;99.90;;;;;;4866000;29;20584;-88
2022/03/11 07:27:02;;;;;;;15.23;8.57;;;5.60;99.90;;;;;;4879738;29;20131;-87
2022/03/11 07:29:28;;;;;;;13.57;8.97;;;5.90;99.90;;;;;;4845916;29;20049;-87
2022/03/11 07:31:53;;;;;;;16.63;8.83;;;6.10;99.90;;;;;;4865999;29;20045;-91
2022/03/11 07:34:20;;;;;;;14.43;8.82;;;6.30;99.90;;;;;;4866846;29;20045;-87
2022/03/11 07:36:47;;;;;;;15.43;9.32;;;6.40;99.90;;;;;;4854568;29;20059;-87
2022/03/11 07:39:12;;;;;;;18.20;9.10;;;6.70;99.90;;;;;;4870372;29;20097;-88
2022/03/11 07:41:38;;;;;;;12.07;8.30;;;6.80;99.90;;;;;;4884711;29;20137;-87
2022/03/11 07:44:04;;;;;;;14.10;8.60;;;7.00;99.90;;;;;;4889151;29;20041;-91
2022/03/11 07:46:31;;;;;;;11.93;8.00;;;7.10;99.90;;;;;;4882661;29;20458;-89
2022/03/11 07:48:57;;;;;;;13.35;8.93;;;7.20;99.90;;;;;;4869479;29;20042;-87
2022/03/11 07:51:25;;;;;;;14.35;8.18;;;7.20;99.90;;;;;;4863198;29;20041;-87
2022/03/11 07:53:51;;;;;;;14.23;9.23;;;7.20;99.90;;;;;;4861693;29;20408;-88
2022/03/11 07:56:17;;;;;;;11.57;8.63;;;7.30;99.90;;;;;;4870544;29;20049;-87
2022/03/11 07:58:43;;;;;;;13.23;8.30;;;7.50;99.90;;;;;;4871746;29;20055;-87
2022/03/11 08:01:09;;;;;;;14.90;8.65;;;7.70;99.90;;;;;;4873459;29;20052;-89
2022/03/11 08:03:39;;;;;;;11.95;7.65;;;7.80;99.90;;;;;;4885543;29;20520;-88
2022/03/11 08:06:06;;;;;;;13.63;8.65;;;8.00;99.90;;;;;;4867324;29;20049;-88
2022/03/11 08:08:32;;;;;;;14.45;8.77;;;8.20;99.90;;;;;;4867153;29;20084;-88
2022/03/11 08:10:58;;;;;;;11.40;7.87;;;8.30;98.00;;;;;;4865563;29;20084;-89
2022/03/11 08:13:24;;;;;;;15.93;8.87;;;8.30;98.50;;;;;;4894911;29;20397;-89
2022/03/11 08:15:50;;;;;;;15.18;8.57;;;8.40;97.70;;;;;;4863730;29;20597;-89
2022/03/11 08:18:16;;;;;;;13.00;8.17;;;8.50;96.80;;;;;;4876506;29;20093;-86
2022/03/11 08:20:42;;;;;;;16.73;8.47;;;8.60;95.90;;;;;;4844969;29;20099;-89
2022/03/11 08:23:08;;;;;;;11.88;8.30;;;8.70;94.70;;;;;;4890186;29;20109;-90
2022/03/11 08:25:35;;;;;;;12.73;8.30;;;8.70;94.20;;;;;;4863978;29;20055;-90
2022/03/11 08:28:02;;;;;;;12.55;8.75;;;8.70;93.50;;;;;;4845420;29;20399;-90
2022/03/11 08:30:29;;;;;;;12.13;7.80;;;8.80;92.90;;;;;;4861769;29;20053;-90
2022/03/11 08:32:55;;;;;;;15.52;8.82;;;8.90;92.20;;;;;;4863608;29;20575;-91
2022/03/11 08:35:21;;;;;;;14.88;8.80;;;9.00;91.90;;;;;;4864362;29;20053;-90
2022/03/11 08:37:48;;;;;;;16.77;9.43;;;9.10;91.10;;;;;;4830816;29;20133;-90
2022/03/11 08:40:14;;;;;;;14.20;8.00;;;9.20;90.10;;;;;;4830411;29;20481;-90
2022/03/11 08:42:41;;;;;;;16.42;8.77;;;9.20;88.40;;;;;;4861463;29;20101;-91
2022/03/11 08:45:10;;;;;;;12.23;9.02;;;9.20;87.40;;;;;;4845741;29;20064;-92
2022/03/11 08:47:35;;;;;;;15.35;9.10;;;9.30;87.10;;;;;;4852562;29;20405;-90
2022/03/11 08:50:05;;;;;;;14.03;10.00;;;9.50;86.80;;;;;;4894641;29;20041;-90
2022/03/11 08:52:31;;;;;;;15.90;8.10;;;9.40;85.10;;;;;;4860758;29;20045;-91
2022/03/11 08:54:57;;;;;;;11.48;8.15;;;9.40;84.00;;;;;;4862143;29;20152;-91
2022/03/11 08:57:23;;;;;;;15.50;8.70;;;9.50;83.10;;;;;;4877816;29;20485;-92
2022/03/11 08:59:49;;;;;;;14.63;6.90;;;9.40;82.50;;;;;;4878486;29;20069;-91
2022/03/11 09:02:15;;;;;;;15.93;9.63;;;9.30;82.80;;;;;;4863424;29;20049;-90
2022/03/11 09:04:42;;;;;;;13.10;9.03;;;9.40;81.50;;;;;;4892646;29;20104;-90
2022/03/11 09:07:08;;;;;;;;;;;9.40;81.10;;;;;;4872803;29;20464;-91
2022/03/11 09:09:34;;;;;;;11.63;8.27;;;9.40;79.80;;;;;;4844573;29;19930;-90
2022/03/11 09:12:00;;;;;;;14.87;9.40;;;9.50;79.60;;;;;;4844445;29;20049;-90
2022/03/11 09:14:26;;;;;;;15.18;9.25;;;9.40;79.70;;;;;;4856539;29;20076;-89
2022/03/11 09:16:52;;;;;;;18.00;9.00;;;9.50;79.40;;;;;;4875943;29;20519;-89
2022/03/11 09:19:18;;;;;;;15.53;9.07;;;9.50;78.80;;;;;;4878882;29;20080;-89
2022/03/11 09:21:43;;;;;;;12.50;9.23;;;9.70;79.10;;;;;;4878250;29;20048;-91
2022/03/11 09:24:09;;;;;;;12.97;7.97;;;9.90;79.00;;;;;;4890430;29;20124;-90
2022/03/11 09:26:35;;;;;;;15.37;8.03;;;9.90;78.40;;;;;;4861811;29;20056;-90
2022/03/11 09:29:01;;;;;;;14.97;8.97;;;9.90;77.40;;;;;;4862656;29;20045;-90
2022/03/11 09:31:26;;;;;;;17.17;9.47;;;9.80;77.40;;;;;;4878444;29;20069;-91
2022/03/11 09:33:52;;;;;;;12.93;8.30;;;9.70;77.20;;;;;;4860555;29;20048;-89
2022/03/11 09:36:18;;;;;;;13.83;8.17;;;9.50;78.30;;;;;;4879736;29;20057;-89
2022/03/11 09:38:44;;;;;;;16.73;9.53;;;9.40;78.80;;;;;;4837694;29;20045;-89
2022/03/11 09:41:10;;;;;;;18.93;9.90;;;9.20;79.10;;;;;;4873831;29;20144;-91
2022/03/11 09:43:38;;;;;;;14.30;8.20;;;9.20;78.90;;;;;;4862919;29;20060;-90
2022/03/11 09:46:04;;;;;;;19.17;9.52;;;9.10;79.40;;;;;;4883020;29;20128;-91
2022/03/11 09:48:32;;;;;;;11.07;8.15;;;9.10;79.40;;;;;;4844982;29;20577;-91
2022/03/11 09:51:01;;;;;;;18.25;9.50;;;9.20;79.50;;;;;;4874520;29;20049;-91
2022/03/11 09:53:27;;;;;;;12.07;8.18;;;9.40;79.00;;;;;;4875235;29;20053;-90
2022/03/11 09:55:54;;;;;;;16.05;8.27;;;9.50;78.70;;;;;;4860175;29;20045;-90
2022/03/11 09:58:19;;;;;;;11.48;9.00;;;9.60;78.80;;;;;;4883801;29;20139;-87
2022/03/11 10:00:49;;;;;;;15.37;8.63;;;9.90;77.90;;;;;;4875548;29;20148;-86
2022/03/11 10:03:15;;;;;;;14.40;8.82;;;10.00;75.70;;;;;;4884016;29;20105;-87
2022/03/11 10:05:55;;;;;;;19.97;9.13;;;10.30;76.60;;;;;;4886229;29;20400;-85
2022/03/11 10:08:35;;;;;;;18.40;9.10;;;10.30;74.70;;;;;;4871188;29;20048;-86
2022/03/11 10:11:18;;;;;;;17.52;8.80;;;10.20;74.10;;;;;;4869653;29;20105;-87
2022/03/11 10:13:43;;;;;;;13.45;8.40;;;10.00;73.50;;;;;;4875669;29;20060;-84
2022/03/11 10:16:20;;;;;;;12.17;8.83;;;10.00;74.10;;;;;;4866183;29;20049;-85
2022/03/11 10:19:01;;;;;;;14.68;8.60;;;10.10;72.00;;;;;;4873022;29;20052;-83
2022/03/11 10:21:32;;;;;;;13.07;8.57;;;10.20;73.30;;;;;;4879165;29;20161;-87
2022/03/11 10:23:59;;;;;;;14.02;7.15;;;10.20;73.00;;;;;;4850495;29;20048;-86
2022/03/11 10:26:40;;;;;;;14.95;8.48;;;10.20;73.00;;;;;;4869263;29;20092;-86
2022/03/11 10:29:09;;;;;;;15.48;8.40;;;10.30;71.70;;;;;;4864784;29;20049;-93
2022/03/11 10:31:43;;;;;;;15.13;8.93;;;10.30;72.20;;;;;;4876277;29;20124;-87
2022/03/11 10:34:33;;;;;;;18.02;9.10;;;10.30;72.20;;;;;;4868127;29;20056;-87
2022/03/11 10:37:02;;;;;;;14.57;8.52;;;10.30;71.60;;;;;;4873385;29;20049;-86
2022/03/11 10:39:29;;;;;;;13.10;8.80;;;10.40;72.40;;;;;;4868988;29;20079;-87
2022/03/11 10:41:57;;;;;;;18.60;9.15;;;10.50;72.00;;;;;;4848728;29;20057;-86
2022/03/11 10:44:26;;;;;;;13.30;8.38;;;10.60;71.50;;;;;;4868743;29;20059;-87
2022/03/11 10:46:56;;;;;;;15.65;7.95;;;10.60;70.70;;;;;;4871811;29;20052;-89
2022/03/11 10:49:31;;;;;;;14.77;8.57;;;10.70;70.90;;;;;;4884239;29;20049;-87
2022/03/11 10:51:58;;;;;;;16.17;8.90;;;10.80;70.60;;;;;;4864693;29;20059;-87
2022/03/11 10:54:26;;;;;;;12.95;7.93;;;10.80;70.60;;;;;;4848180;29;20053;-88
2022/03/11 10:56:52;;;;;;;19.63;9.48;;;10.90;69.80;;;;;;4866620;29;20053;-93
2022/03/11 10:59:21;;;;;;;15.18;8.07;;;10.80;69.30;;;;;;4862487;29;20064;-86
2022/03/11 11:01:47;;;;;;;14.05;9.07;;;10.80;69.40;;;;;;4880568;29;20566;-86
2022/03/11 11:04:15;;;;;;;12.18;8.48;;;10.70;68.90;;;;;;4877804;29;20416;-85
2022/03/11 11:06:41;;;;;;;13.77;8.07;;;10.70;69.00;;;;;;4852717;29;20051;-86
2022/03/11 11:09:09;;;;;;;14.82;8.80;;;10.80;69.00;;;;;;4862642;29;20408;-85
2022/03/11 11:11:35;;;;;;;18.00;8.75;;;10.80;69.00;;;;;;4877022;29;20077;-89
2022/03/11 11:14:05;;;;;;;17.20;8.43;;;10.80;68.70;;;;;;4888531;29;20041;-87
2022/03/11 11:16:41;;;;;;;16.10;9.25;;;10.80;68.30;;;;;;4868798;29;20507;-86
2022/03/11 11:19:13;;;;;;;14.35;8.23;;;10.80;67.60;;;;;;4875103;29;20060;-89
2022/03/11 11:21:42;;;;;;;12.80;8.07;;;10.80;67.90;;;;;;4892961;29;20052;-89
2022/03/11 11:24:23;;;;;;;12.40;8.98;;;11.00;68.30;;;;;;4890719;29;20536;-88
2022/03/11 11:26:54;;;;;;;17.05;8.13;;;11.10;67.10;;;;;;4841009;29;20066;-88
2022/03/11 11:29:29;;;;;;;17.73;8.75;;;11.20;66.70;;;;;;4861540;29;20053;-89
2022/03/11 11:31:55;;;;;;;16.40;8.65;;;11.20;66.10;;;;;;4855831;29;20085;-84
2022/03/11 11:34:30;;;;;;;13.65;7.93;;;11.30;66.10;;;;;;4879006;29;20140;-89
2022/03/11 11:36:56;;;;;;;13.02;7.97;;;11.40;66.30;;;;;;4856921;29;20192;-84
2022/03/11 11:39:25;;;;;;;14.52;8.40;;;11.30;65.70;;;;;;4866821;29;20059;-90
2022/03/11 11:42:01;;;;;;;14.63;8.88;;;11.50;66.10;;;;;;4849688;29;20113;-88
2022/03/11 11:44:34;;;;;;;14.88;8.95;;;11.60;65.50;;;;;;4832287;29;20085;-88
2022/03/11 11:47:20;;;;;;;16.50;8.82;;;11.70;65.40;;;;;;4841582;29;20081;-88
2022/03/11 11:49:50;;;;;;;12.05;7.35;;;11.80;64.40;;;;;;4864431;29;20071;-88
2022/03/11 11:52:37;;;;;;;17.17;7.90;;;12.00;64.60;;;;;;4858186;29;20059;-90
2022/03/11 11:55:19;;;;;;;11.95;7.63;;;12.10;63.10;;;;;;4867964;29;20563;-92
2022/03/11 11:57:46;;;;;;;14.43;8.02;;;12.10;63.00;;;;;;4864283;29;20484;-88
2022/03/11 12:00:27;;;;;;;13.13;8.00;;;12.10;63.70;;;;;;4886956;29;20140;-88
2022/03/11 12:02:53;;;;;;;13.15;7.55;;;12.30;62.40;;;;;;4862926;29;20045;-88
2022/03/11 12:05:43;;;;;;;14.13;7.80;;;12.40;63.20;;;;;;4889436;29;20346;-88
2022/03/11 12:08:29;;;;;;;10.90;7.95;;;12.30;60.40;;;;;;4860558;29;20116;-88
2022/03/11 12:10:55;;;;;;;11.07;7.95;;;12.40;62.00;;;;;;4889269;29;20080;-88
2022/03/11 12:13:35;;;;;;;9.93;7.83;;;12.50;62.20;;;;;;4872199;29;20453;-88
2022/03/11 12:16:03;;;;;;;14.23;8.40;;;12.70;60.70;;;;;;4863949;29;20052;-84
2022/03/11 12:18:45;;;;;;;12.98;7.07;;;12.90;61.90;;;;;;4878618;29;20044;-89
2022/03/11 12:21:41;;;;;;;12.05;6.82;;;12.90;60.50;;;;;;4886225;29;20137;-89
2022/03/11 12:24:32;;;;;;;10.27;7.47;;;13.00;58.40;;;;;;4845738;29;20052;-88
2022/03/11 12:26:58;;;;;;;12.80;8.55;;;13.10;59.10;;;;;;4862261;29;20045;-89
2022/03/11 12:29:35;;;;;;;11.87;7.07;;;13.30;60.10;;;;;;4893669;29;20052;-93
2022/03/11 12:32:07;;;;;;;12.80;7.82;;;13.50;59.00;;;;;;4851407;29;20549;-84
2022/03/11 12:34:33;;;;;;;11.80;7.32;;;13.50;59.30;;;;;;4845665;29;20046;-87
2022/03/11 12:36:59;;;;;;;12.70;8.67;;;13.60;59.40;;;;;;4851251;29;20536;-87
2022/03/11 12:39:32;;;;;;;13.50;8.02;;;13.80;58.80;;;;;;4863714;29;20796;-86
2022/03/11 12:41:58;;;;;;;12.65;7.75;;;13.70;58.10;;;;;;4878873;29;20053;-83
2022/03/11 12:44:24;;;;;;;16.40;8.40;;;13.60;58.70;;;;;;4845855;29;20231;-87
2022/03/11 12:46:50;;;;;;;12.33;7.00;;;13.60;58.90;;;;;;4845619;29;20081;-89
2022/03/11 12:49:28;;;;;;;11.37;7.03;;;13.80;59.10;;;;;;4866928;29;20045;-93